sensor_id;sensor_type;location;lat;lon;timestamp;pressure;altitude;pressure_sealevel;temperature;humidity
28921;BME280;16035;53.594;9.952;2023-09-19T00:01:42;100227.75;;;18.95;66.42
28921;BME280;16035;53.594;9.952;2023-09-19T00:03:45;100219.84;;;18.93;66.55
28921;BME280;16035;53.594;9.952;2023-09-19T00:05:46;100220.63;;;18.94;66.86
28921;BME280;16035;53.594;9.952;2023-09-19T00:07:47;100228.91;;;18.94;66.68
28921;BME280;16035;53.594;9.952;2023-09-19T00:09:48;100243.31;;;18.91;66.64
28921;BME280;16035;53.594;9.952;2023-09-19T00:11:49;100231.84;;;18.89;66.66
28921;BME280;16035;53.594;9.952;2023-09-19T00:13:50;100236.84;;;18.87;66.70
28921;BME280;16035;53.594;9.952;2023-09-19T00:15:51;100228.94;;;18.85;67.03
28921;BME280;16035;53.594;9.952;2023-09-19T00:17:52;100232.81;;;18.84;66.95
28921;BME280;16035;53.594;9.952;2023-09-19T00:19:55;100224.72;;;18.79;66.80
28921;BME280;16035;53.594;9.952;2023-09-19T00:21:55;100230.56;;;18.78;66.99
28921;BME280;16035;53.594;9.952;2023-09-19T00:23:55;100234.47;;;18.77;67.04
28921;BME280;16035;53.594;9.952;2023-09-19T00:25:58;100241.56;;;18.78;67.12
28921;BME280;16035;53.594;9.952;2023-09-19T00:27:59;100243.53;;;18.77;67.20
28921;BME280;16035;53.594;9.952;2023-09-19T00:29:59;100238.66;;;18.74;67.08
28921;BME280;16035;53.594;9.952;2023-09-19T00:32:00;100241.75;;;18.73;67.19
28921;BME280;16035;53.594;9.952;2023-09-19T00:34:03;100244.16;;;18.74;67.30
28921;BME280;16035;53.594;9.952;2023-09-19T00:36:04;100237.06;;;18.73;67.15
28921;BME280;16035;53.594;9.952;2023-09-19T00:38:05;100245.66;;;18.72;67.33
28921;BME280;16035;53.594;9.952;2023-09-19T00:40:08;100246.75;;;18.71;67.28
28921;BME280;16035;53.594;9.952;2023-09-19T00:42:18;100239.81;;;18.73;67.44
28921;BME280;16035;53.594;9.952;2023-09-19T00:44:21;100237.84;;;18.74;67.29
28921;BME280;16035;53.594;9.952;2023-09-19T00:46:23;100229.44;;;18.70;67.26
28921;BME280;16035;53.594;9.952;2023-09-19T00:48:24;100235.44;;;18.72;67.58
28921;BME280;16035;53.594;9.952;2023-09-19T00:50:27;100244.50;;;18.73;67.39
28921;BME280;16035;53.594;9.952;2023-09-19T00:52:28;100239.66;;;18.69;67.73
28921;BME280;16035;53.594;9.952;2023-09-19T00:54:29;100247.09;;;18.69;67.33
28921;BME280;16035;53.594;9.952;2023-09-19T00:56:29;100244.84;;;18.71;67.52
28921;BME280;16035;53.594;9.952;2023-09-19T00:58:30;100259.06;;;18.73;67.62
28921;BME280;16035;53.594;9.952;2023-09-19T01:00:34;100261.19;;;18.76;67.69
28921;BME280;16035;53.594;9.952;2023-09-19T01:02:35;100252.59;;;18.78;67.65
28921;BME280;16035;53.594;9.952;2023-09-19T01:04:36;100259.22;;;18.77;67.60
28921;BME280;16035;53.594;9.952;2023-09-19T01:06:36;100256.16;;;18.78;67.31
28921;BME280;16035;53.594;9.952;2023-09-19T01:08:36;100257.28;;;18.77;67.51
28921;BME280;16035;53.594;9.952;2023-09-19T01:10:51;100262.31;;;18.75;67.43
28921;BME280;16035;53.594;9.952;2023-09-19T01:13:19;100260.53;;;18.71;67.55
28921;BME280;16035;53.594;9.952;2023-09-19T01:17:46;100261.16;;;18.67;67.61
28921;BME280;16035;53.594;9.952;2023-09-19T01:29:46;100273.34;;;18.58;67.89
28921;BME280;16035;53.594;9.952;2023-09-19T01:31:49;100267.81;;;18.58;67.92
28921;BME280;16035;53.594;9.952;2023-09-19T01:35:59;100274.13;;;18.58;67.91
28921;BME280;16035;53.594;9.952;2023-09-19T01:37:59;100271.38;;;18.58;68.15
28921;BME280;16035;53.594;9.952;2023-09-19T01:40:06;100264.28;;;18.57;68.15
28921;BME280;16035;53.594;9.952;2023-09-19T01:42:34;100275.75;;;18.59;67.92
28921;BME280;16035;53.594;9.952;2023-09-19T01:44:42;100273.63;;;18.56;67.84
28921;BME280;16035;53.594;9.952;2023-09-19T01:46:44;100280.28;;;18.55;67.25
28921;BME280;16035;53.594;9.952;2023-09-19T01:53:08;100297.44;;;18.52;67.53
28921;BME280;16035;53.594;9.952;2023-09-19T01:55:11;100284.81;;;18.51;67.28
28921;BME280;16035;53.594;9.952;2023-09-19T01:57:22;100302.13;;;18.52;67.21
28921;BME280;16035;53.594;9.952;2023-09-19T01:59:35;100297.94;;;18.46;67.02
28921;BME280;16035;53.594;9.952;2023-09-19T02:01:36;100292.59;;;18.40;66.84
28921;BME280;16035;53.594;9.952;2023-09-19T02:03:38;100297.94;;;18.37;66.75
28921;BME280;16035;53.594;9.952;2023-09-19T02:05:39;100290.16;;;18.30;66.72
28921;BME280;16035;53.594;9.952;2023-09-19T02:07:39;100304.75;;;18.31;66.88
28921;BME280;16035;53.594;9.952;2023-09-19T02:09:40;100302.00;;;18.31;66.74
28921;BME280;16035;53.594;9.952;2023-09-19T02:11:42;100297.13;;;18.28;66.70
28921;BME280;16035;53.594;9.952;2023-09-19T02:13:43;100312.50;;;18.29;67.05
28921;BME280;16035;53.594;9.952;2023-09-19T02:15:43;100309.75;;;18.29;66.79
28921;BME280;16035;53.594;9.952;2023-09-19T02:17:47;100312.03;;;18.27;66.77
28921;BME280;16035;53.594;9.952;2023-09-19T02:19:47;100319.47;;;18.26;66.82
28921;BME280;16035;53.594;9.952;2023-09-19T02:21:47;100328.53;;;18.27;66.91
28921;BME280;16035;53.594;9.952;2023-09-19T02:23:48;100325.28;;;18.25;66.86
28921;BME280;16035;53.594;9.952;2023-09-19T02:25:56;100320.91;;;18.24;66.97
28921;BME280;16035;53.594;9.952;2023-09-19T02:28:01;100312.19;;;18.22;67.03
28921;BME280;16035;53.594;9.952;2023-09-19T02:30:04;100310.53;;;18.21;66.98
28921;BME280;16035;53.594;9.952;2023-09-19T02:32:06;100318.78;;;18.21;67.05
28921;BME280;16035;53.594;9.952;2023-09-19T02:34:07;100322.69;;;18.19;67.04
28921;BME280;16035;53.594;9.952;2023-09-19T02:36:08;100319.94;;;18.19;67.09
28921;BME280;16035;53.594;9.952;2023-09-19T02:38:09;100321.06;;;18.18;67.28
28921;BME280;16035;53.594;9.952;2023-09-19T02:40:12;100324.63;;;18.19;67.27
28921;BME280;16035;53.594;9.952;2023-09-19T02:42:26;100333.22;;;18.17;67.27
28921;BME280;16035;53.594;9.952;2023-09-19T02:44:26;100336.75;;;18.18;67.28
28921;BME280;16035;53.594;9.952;2023-09-19T02:46:27;100330.28;;;18.14;67.37
28921;BME280;16035;53.594;9.952;2023-09-19T02:48:28;100329.94;;;18.15;67.67
28921;BME280;16035;53.594;9.952;2023-09-19T02:50:29;100338.03;;;18.12;67.78
28921;BME280;16035;53.594;9.952;2023-09-19T02:52:30;100325.59;;;18.14;67.74
28921;BME280;16035;53.594;9.952;2023-09-19T02:54:30;100322.50;;;18.16;67.63
28921;BME280;16035;53.594;9.952;2023-09-19T02:56:30;100329.16;;;18.15;67.56
28921;BME280;16035;53.594;9.952;2023-09-19T02:58:32;100321.22;;;18.13;67.69
28921;BME280;16035;53.594;9.952;2023-09-19T03:00:35;100323.81;;;18.10;67.92
28921;BME280;16035;53.594;9.952;2023-09-19T03:02:36;100315.56;;;18.10;67.72
28921;BME280;16035;53.594;9.952;2023-09-19T03:04:38;100320.25;;;18.09;67.80
28921;BME280;16035;53.594;9.952;2023-09-19T03:06:38;100314.09;;;18.12;67.91
28921;BME280;16035;53.594;9.952;2023-09-19T03:08:39;100322.84;;;18.14;67.76
28921;BME280;16035;53.594;9.952;2023-09-19T03:10:39;100325.41;;;18.11;67.40
28921;BME280;16035;53.594;9.952;2023-09-19T03:12:40;100328.50;;;18.09;67.62
28921;BME280;16035;53.594;9.952;2023-09-19T03:14:40;100324.63;;;18.10;67.72
28921;BME280;16035;53.594;9.952;2023-09-19T03:16:40;100333.66;;;18.11;67.72
28921;BME280;16035;53.594;9.952;2023-09-19T03:18:42;100331.88;;;18.06;67.52
28921;BME280;16035;53.594;9.952;2023-09-19T03:20:42;100336.91;;;18.04;67.42
28921;BME280;16035;53.594;9.952;2023-09-19T03:22:43;100346.44;;;18.07;67.52
28921;BME280;16035;53.594;9.952;2023-09-19T03:24:44;100345.00;;;18.09;67.44
28921;BME280;16035;53.594;9.952;2023-09-19T03:26:44;100348.38;;;18.06;67.28
28921;BME280;16035;53.594;9.952;2023-09-19T03:28:45;100342.56;;;18.08;67.23
28921;BME280;16035;53.594;9.952;2023-09-19T03:30:58;100342.56;;;18.08;67.60
28921;BME280;16035;53.594;9.952;2023-09-19T03:32:59;100346.94;;;18.09;67.22
28921;BME280;16035;53.594;9.952;2023-09-19T03:35:01;100348.06;;;18.08;67.34
28921;BME280;16035;53.594;9.952;2023-09-19T03:37:01;100354.06;;;18.10;67.02
28921;BME280;16035;53.594;9.952;2023-09-19T03:39:02;100347.25;;;18.07;67.23
28921;BME280;16035;53.594;9.952;2023-09-19T03:41:05;100353.88;;;18.06;67.29
28921;BME280;16035;53.594;9.952;2023-09-19T03:43:05;100351.13;;;18.06;67.16
28921;BME280;16035;53.594;9.952;2023-09-19T03:45:10;100359.38;;;18.06;67.32
28921;BME280;16035;53.594;9.952;2023-09-19T03:47:12;100364.41;;;18.04;67.21
28921;BME280;16035;53.594;9.952;2023-09-19T03:49:12;100361.16;;;18.02;67.29
28921;BME280;16035;53.594;9.952;2023-09-19T03:51:13;100367.28;;;17.99;67.06
28921;BME280;16035;53.594;9.952;2023-09-19T03:53:13;100375.38;;;17.96;67.35
28921;BME280;16035;53.594;9.952;2023-09-19T03:55:13;100377.63;;;17.93;67.43
28921;BME280;16035;53.594;9.952;2023-09-19T03:57:14;100372.28;;;17.88;67.35
28921;BME280;16035;53.594;9.952;2023-09-19T03:59:17;100378.09;;;17.87;67.13
28921;BME280;16035;53.594;9.952;2023-09-19T04:01:18;100378.53;;;17.80;67.02
28921;BME280;16035;53.594;9.952;2023-09-19T04:03:18;100387.44;;;17.77;67.35
28921;BME280;16035;53.594;9.952;2023-09-19T04:05:20;100385.63;;;17.73;66.86
28921;BME280;16035;53.594;9.952;2023-09-19T04:07:21;100384.94;;;17.67;66.84
28921;BME280;16035;53.594;9.952;2023-09-19T04:09:22;100384.75;;;17.63;66.70
28921;BME280;16035;53.594;9.952;2023-09-19T04:11:22;100391.84;;;17.56;66.52
28921;BME280;16035;53.594;9.952;2023-09-19T04:13:23;100407.34;;;17.52;66.77
28921;BME280;16035;53.594;9.952;2023-09-19T04:15:23;100402.47;;;17.49;66.66
28921;BME280;16035;53.594;9.952;2023-09-19T04:17:24;100394.56;;;17.47;65.68
28921;BME280;16035;53.594;9.952;2023-09-19T04:19:24;100401.00;;;17.42;66.36
28921;BME280;16035;53.594;9.952;2023-09-19T04:21:24;100402.75;;;17.38;65.96
28921;BME280;16035;53.594;9.952;2023-09-19T04:23:25;100404.16;;;17.36;66.30
28921;BME280;16035;53.594;9.952;2023-09-19T04:25:26;100400.94;;;17.34;66.40
28921;BME280;16035;53.594;9.952;2023-09-19T04:27:27;100413.06;;;17.33;66.07
28921;BME280;16035;53.594;9.952;2023-09-19T04:29:28;100414.00;;;17.28;66.03
28921;BME280;16035;53.594;9.952;2023-09-19T04:31:30;100436.06;;;17.23;65.76
28921;BME280;16035;53.594;9.952;2023-09-19T04:33:31;100429.09;;;17.17;65.67
28921;BME280;16035;53.594;9.952;2023-09-19T04:35:35;100438.78;;;17.14;65.95
28921;BME280;16035;53.594;9.952;2023-09-19T04:37:39;100442.63;;;17.13;65.86
28921;BME280;16035;53.594;9.952;2023-09-19T04:39:40;100433.41;;;17.09;65.60
28921;BME280;16035;53.594;9.952;2023-09-19T04:41:40;100441.16;;;17.07;65.74
28921;BME280;16035;53.594;9.952;2023-09-19T04:43:41;100447.63;;;17.11;65.52
28921;BME280;16035;53.594;9.952;2023-09-19T04:45:42;100446.13;;;17.05;65.23
28921;BME280;16035;53.594;9.952;2023-09-19T04:47:42;100446.25;;;17.00;65.33
28921;BME280;16035;53.594;9.952;2023-09-19T04:49:43;100447.38;;;16.99;65.53
28921;BME280;16035;53.594;9.952;2023-09-19T04:51:44;100441.88;;;16.99;65.47
28921;BME280;16035;53.594;9.952;2023-09-19T04:53:47;100442.09;;;17.03;65.64
28921;BME280;16035;53.594;9.952;2023-09-19T04:55:51;100447.91;;;17.01;65.21
28921;BME280;16035;53.594;9.952;2023-09-19T04:57:55;100450.72;;;16.96;65.14
28921;BME280;16035;53.594;9.952;2023-09-19T04:59:56;100461.72;;;16.96;65.22
28921;BME280;16035;53.594;9.952;2023-09-19T05:01:58;100458.97;;;16.96;65.36
28921;BME280;16035;53.594;9.952;2023-09-19T05:03:58;100461.84;;;16.91;64.89
28921;BME280;16035;53.594;9.952;2023-09-19T05:05:59;100454.03;;;16.84;65.29
28921;BME280;16035;53.594;9.952;2023-09-19T05:07:59;100457.91;;;16.83;65.19
28921;BME280;16035;53.594;9.952;2023-09-19T05:09:59;100455.66;;;16.85;65.17
28921;BME280;16035;53.594;9.952;2023-09-19T05:12:00;100460.94;;;16.82;65.40
28921;BME280;16035;53.594;9.952;2023-09-19T05:14:00;100457.09;;;16.83;65.34
28921;BME280;16035;53.594;9.952;2023-09-19T05:16:03;100469.72;;;16.84;65.50
28921;BME280;16035;53.594;9.952;2023-09-19T05:18:04;100470.50;;;16.84;65.41
28921;BME280;16035;53.594;9.952;2023-09-19T05:20:06;100474.25;;;16.88;65.33
28921;BME280;16035;53.594;9.952;2023-09-19T05:22:15;100469.38;;;16.85;65.01
28921;BME280;16035;53.594;9.952;2023-09-19T05:24:15;100476.94;;;16.80;65.16
28921;BME280;16035;53.594;9.952;2023-09-19T05:26:17;100477.53;;;16.77;65.34
28921;BME280;16035;53.594;9.952;2023-09-19T05:28:18;100474.00;;;16.76;65.47
28921;BME280;16035;53.594;9.952;2023-09-19T05:30:18;100477.34;;;16.73;65.23
28921;BME280;16035;53.594;9.952;2023-09-19T05:32:20;100476.81;;;16.71;65.47
28921;BME280;16035;53.594;9.952;2023-09-19T05:34:20;100468.06;;;16.69;65.33
28921;BME280;16035;53.594;9.952;2023-09-19T05:36:20;100471.94;;;16.68;65.39
28921;BME280;16035;53.594;9.952;2023-09-19T05:38:21;100470.31;;;16.67;65.69
28921;BME280;16035;53.594;9.952;2023-09-19T05:40:21;100477.22;;;16.64;65.54
28921;BME280;16035;53.594;9.952;2023-09-19T05:42:21;100474.47;;;16.64;65.84
28921;BME280;16035;53.594;9.952;2023-09-19T05:44:22;100475.91;;;16.62;65.60
28921;BME280;16035;53.594;9.952;2023-09-19T05:46:22;100473.47;;;16.60;65.51
28921;BME280;16035;53.594;9.952;2023-09-19T05:48:22;100489.66;;;16.62;65.53
28921;BME280;16035;53.594;9.952;2023-09-19T05:50:23;100490.78;;;16.61;65.69
28921;BME280;16035;53.594;9.952;2023-09-19T05:52:24;100487.38;;;16.64;65.58
28921;BME280;16035;53.594;9.952;2023-09-19T05:54:25;100493.41;;;16.66;65.70
28921;BME280;16035;53.594;9.952;2023-09-19T05:56:26;100497.16;;;16.70;65.67
28921;BME280;16035;53.594;9.952;2023-09-19T05:58:27;100489.44;;;16.72;65.53
28921;BME280;16035;53.594;9.952;2023-09-19T06:00:27;100496.25;;;16.75;65.39
28921;BME280;16035;53.594;9.952;2023-09-19T06:02:31;100494.81;;;16.77;65.34
28921;BME280;16035;53.594;9.952;2023-09-19T06:04:33;100490.44;;;16.76;65.23
28921;BME280;16035;53.594;9.952;2023-09-19T06:06:33;100486.78;;;16.81;65.47
28921;BME280;16035;53.594;9.952;2023-09-19T06:08:37;100493.47;;;16.88;65.55
28921;BME280;16035;53.594;9.952;2023-09-19T06:10:37;100490.63;;;16.93;65.29
28921;BME280;16035;53.594;9.952;2023-09-19T06:12:41;100498.03;;;16.93;65.36
28921;BME280;16035;53.594;9.952;2023-09-19T06:14:46;100494.84;;;17.00;65.38
28921;BME280;16035;53.594;9.952;2023-09-19T06:16:46;100494.44;;;17.06;65.22
28921;BME280;16035;53.594;9.952;2023-09-19T06:18:47;100500.75;;;17.07;65.07
28921;BME280;16035;53.594;9.952;2023-09-19T06:20:52;100507.03;;;17.07;65.20
28921;BME280;16035;53.594;9.952;2023-09-19T06:22:54;100499.81;;;17.11;65.12
28921;BME280;16035;53.594;9.952;2023-09-19T06:24:54;100501.63;;;17.16;65.01
28921;BME280;16035;53.594;9.952;2023-09-19T06:26:54;100513.41;;;17.16;64.83
28921;BME280;16035;53.594;9.952;2023-09-19T06:28:55;100520.53;;;17.17;64.80
28921;BME280;16035;53.594;9.952;2023-09-19T06:30:56;100516.16;;;17.16;65.10
28921;BME280;16035;53.594;9.952;2023-09-19T06:32:57;100512.94;;;17.14;64.80
28921;BME280;16035;53.594;9.952;2023-09-19T06:34:58;100515.66;;;17.14;64.92
28921;BME280;16035;53.594;9.952;2023-09-19T06:36:59;100514.84;;;17.14;64.67
28921;BME280;16035;53.594;9.952;2023-09-19T06:38:59;100522.25;;;17.13;64.75
28921;BME280;16035;53.594;9.952;2023-09-19T06:40:59;100516.75;;;17.13;64.83
28921;BME280;16035;53.594;9.952;2023-09-19T06:43:01;100520.22;;;17.19;65.13
28921;BME280;16035;53.594;9.952;2023-09-19T06:45:05;100515.41;;;17.25;64.63
28921;BME280;16035;53.594;9.952;2023-09-19T06:47:06;100510.22;;;17.23;64.67
28921;BME280;16035;53.594;9.952;2023-09-19T06:49:07;100512.69;;;17.25;64.54
28921;BME280;16035;53.594;9.952;2023-09-19T06:51:07;100514.78;;;17.28;64.69
28921;BME280;16035;53.594;9.952;2023-09-19T06:53:08;100521.78;;;17.34;64.71
28921;BME280;16035;53.594;9.952;2023-09-19T06:55:10;100522.59;;;17.34;64.67
28921;BME280;16035;53.594;9.952;2023-09-19T06:57:12;100519.25;;;17.37;64.69
28921;BME280;16035;53.594;9.952;2023-09-19T06:59:13;100526.22;;;17.43;64.79
28921;BME280;16035;53.594;9.952;2023-09-19T07:01:14;100526.84;;;17.40;64.36
28921;BME280;16035;53.594;9.952;2023-09-19T07:03:15;100536.41;;;17.43;64.35
28921;BME280;16035;53.594;9.952;2023-09-19T07:05:20;100540.44;;;17.46;64.57
28921;BME280;16035;53.594;9.952;2023-09-19T07:07:21;100546.13;;;17.49;64.46
28921;BME280;16035;53.594;9.952;2023-09-19T07:09:22;100550.00;;;17.48;64.30
28921;BME280;16035;53.594;9.952;2023-09-19T07:11:23;100557.75;;;17.46;64.24
28921;BME280;16035;53.594;9.952;2023-09-19T07:13:23;100550.63;;;17.45;64.40
28921;BME280;16035;53.594;9.952;2023-09-19T07:15:25;100560.19;;;17.48;64.51
28921;BME280;16035;53.594;9.952;2023-09-19T07:17:31;100556.31;;;17.49;64.31
28921;BME280;16035;53.594;9.952;2023-09-19T07:19:33;100557.13;;;17.49;64.34
28921;BME280;16035;53.594;9.952;2023-09-19T07:21:34;100566.50;;;17.48;64.38
28921;BME280;16035;53.594;9.952;2023-09-19T07:23:35;100566.50;;;17.48;64.18
28921;BME280;16035;53.594;9.952;2023-09-19T07:25:36;100561.59;;;17.45;64.31
28921;BME280;16035;53.594;9.952;2023-09-19T07:27:36;100562.63;;;17.49;64.38
28921;BME280;16035;53.594;9.952;2023-09-19T07:29:36;100569.63;;;17.55;64.42
28921;BME280;16035;53.594;9.952;2023-09-19T07:31:38;100566.88;;;17.55;64.44
28921;BME280;16035;53.594;9.952;2023-09-19T07:33:38;100560.25;;;17.56;64.42
28921;BME280;16035;53.594;9.952;2023-09-19T07:35:39;100576.59;;;17.61;64.21
28921;BME280;16035;53.594;9.952;2023-09-19T07:37:44;100580.16;;;17.62;64.20
28921;BME280;16035;53.594;9.952;2023-09-19T07:39:49;100581.63;;;17.59;64.13
28921;BME280;16035;53.594;9.952;2023-09-19T07:41:50;100595.16;;;17.56;64.33
28921;BME280;16035;53.594;9.952;2023-09-19T07:43:51;100593.34;;;17.51;64.20
28921;BME280;16035;53.594;9.952;2023-09-19T07:45:52;100580.22;;;17.48;64.18
28921;BME280;16035;53.594;9.952;2023-09-19T07:47:53;100603.13;;;17.43;64.49
28921;BME280;16035;53.594;9.952;2023-09-19T07:49:53;100602.44;;;17.38;64.40
28921;BME280;16035;53.594;9.952;2023-09-19T07:51:55;100590.25;;;17.30;64.53
28921;BME280;16035;53.594;9.952;2023-09-19T07:53:57;100587.75;;;17.20;64.63
28921;BME280;16035;53.594;9.952;2023-09-19T07:56:05;100585.84;;;17.07;64.86
28921;BME280;16035;53.594;9.952;2023-09-19T07:58:05;100587.59;;;17.03;65.30
28921;BME280;16035;53.594;9.952;2023-09-19T08:00:07;100591.56;;;16.97;65.46
28921;BME280;16035;53.594;9.952;2023-09-19T08:02:08;100584.34;;;16.87;65.35
28921;BME280;16035;53.594;9.952;2023-09-19T08:04:10;100586.50;;;16.76;65.92
28921;BME280;16035;53.594;9.952;2023-09-19T08:06:10;100586.84;;;16.69;66.36
28921;BME280;16035;53.594;9.952;2023-09-19T08:08:11;100587.16;;;16.68;66.62
28921;BME280;16035;53.594;9.952;2023-09-19T08:10:15;100585.56;;;16.67;66.68
28921;BME280;16035;53.594;9.952;2023-09-19T08:12:16;100597.94;;;16.64;66.89
28921;BME280;16035;53.594;9.952;2023-09-19T08:14:17;100588.28;;;16.67;67.66
28921;BME280;16035;53.594;9.952;2023-09-19T08:16:17;100582.94;;;16.76;67.32
28921;BME280;16035;53.594;9.952;2023-09-19T08:18:19;100584.56;;;16.77;67.41
28921;BME280;16035;53.594;9.952;2023-09-19T08:20:22;100586.19;;;16.78;67.23
28921;BME280;16035;53.594;9.952;2023-09-19T08:22:23;100589.44;;;16.80;67.46
28921;BME280;16035;53.594;9.952;2023-09-19T08:24:28;100586.06;;;16.83;67.42
28921;BME280;16035;53.594;9.952;2023-09-19T08:26:29;100588.72;;;16.88;67.37
28921;BME280;16035;53.594;9.952;2023-09-19T08:28:29;100588.63;;;16.93;67.58
28921;BME280;16035;53.594;9.952;2023-09-19T08:30:30;100579.66;;;17.01;67.62
28921;BME280;16035;53.594;9.952;2023-09-19T08:32:30;100595.00;;;17.02;67.21
28921;BME280;16035;53.594;9.952;2023-09-19T08:34:31;100594.31;;;16.97;67.25
28921;BME280;16035;53.594;9.952;2023-09-19T08:36:34;100593.47;;;16.96;67.51
28921;BME280;16035;53.594;9.952;2023-09-19T08:38:35;100596.22;;;16.96;67.20
28921;BME280;16035;53.594;9.952;2023-09-19T08:40:38;100589.91;;;16.96;67.24
28921;BME280;16035;53.594;9.952;2023-09-19T08:42:48;100591.66;;;16.91;67.52
28921;BME280;16035;53.594;9.952;2023-09-19T08:44:50;100595.41;;;16.96;67.63
28921;BME280;16035;53.594;9.952;2023-09-19T08:46:54;100589.00;;;17.00;67.64
28921;BME280;16035;53.594;9.952;2023-09-19T08:49:02;100598.75;;;17.06;67.71
28921;BME280;16035;53.594;9.952;2023-09-19T08:51:06;100601.19;;;17.08;67.46
28921;BME280;16035;53.594;9.952;2023-09-19T08:53:11;100607.91;;;17.15;67.33
28921;BME280;16035;53.594;9.952;2023-09-19T08:55:15;100604.72;;;17.22;67.55
28921;BME280;16035;53.594;9.952;2023-09-19T08:57:22;100601.34;;;17.25;67.20
28921;BME280;16035;53.594;9.952;2023-09-19T08:59:23;100602.50;;;17.24;67.28
28921;BME280;16035;53.594;9.952;2023-09-19T09:01:27;100598.28;;;17.27;67.03
28921;BME280;16035;53.594;9.952;2023-09-19T09:03:32;100609.69;;;17.34;67.20
28921;BME280;16035;53.594;9.952;2023-09-19T09:05:35;100608.03;;;17.47;67.32
28921;BME280;16035;53.594;9.952;2023-09-19T09:07:45;100610.84;;;17.55;67.51
28921;BME280;16035;53.594;9.952;2023-09-19T09:09:47;100614.28;;;17.61;67.22
28921;BME280;16035;53.594;9.952;2023-09-19T09:11:48;100616.69;;;17.62;67.01
28921;BME280;16035;53.594;9.952;2023-09-19T09:13:53;100622.19;;;17.62;66.91
28921;BME280;16035;53.594;9.952;2023-09-19T09:15:53;100629.31;;;17.63;67.04
28921;BME280;16035;53.594;9.952;2023-09-19T09:17:54;100630.31;;;17.67;66.90
28921;BME280;16035;53.594;9.952;2023-09-19T09:19:56;100632.78;;;17.69;66.97
28921;BME280;16035;53.594;9.952;2023-09-19T09:22:10;100622.50;;;17.75;66.60
28921;BME280;16035;53.594;9.952;2023-09-19T09:24:30;100613.78;;;17.81;67.03
28921;BME280;16035;53.594;9.952;2023-09-19T09:28:45;100624.56;;;17.91;66.35
28921;BME280;16035;53.594;9.952;2023-09-19T09:30:45;100617.31;;;17.96;66.03
28921;BME280;16035;53.594;9.952;2023-09-19T09:32:46;100617.03;;;18.06;65.87
28921;BME280;16035;53.594;9.952;2023-09-19T09:36:51;100622.19;;;18.30;65.29
28921;BME280;16035;53.594;9.952;2023-09-19T09:38:53;100620.28;;;18.39;64.62
28921;BME280;16035;53.594;9.952;2023-09-19T09:40:56;100615.53;;;18.53;64.86
28921;BME280;16035;53.594;9.952;2023-09-19T09:43:25;100620.88;;;18.58;64.31
28921;BME280;16035;53.594;9.952;2023-09-19T09:45:27;100619.59;;;18.64;64.22
28921;BME280;16035;53.594;9.952;2023-09-19T09:47:48;100619.50;;;18.78;63.44
28921;BME280;16035;53.594;9.952;2023-09-19T09:49:58;100625.44;;;19.03;63.53
28921;BME280;16035;53.594;9.952;2023-09-19T09:52:07;100616.53;;;19.32;63.19
28921;BME280;16035;53.594;9.952;2023-09-19T09:54:17;100616.94;;;19.65;62.75
28921;BME280;16035;53.594;9.952;2023-09-19T09:56:19;100610.72;;;19.94;62.73
28921;BME280;16035;53.594;9.952;2023-09-19T09:58:19;100604.53;;;20.14;62.06
28921;BME280;16035;53.594;9.952;2023-09-19T10:00:23;100606.91;;;20.25;61.29
28921;BME280;16035;53.594;9.952;2023-09-19T10:02:28;100615.72;;;20.18;61.19
28921;BME280;16035;53.594;9.952;2023-09-19T10:04:29;100616.53;;;20.10;61.01
28921;BME280;16035;53.594;9.952;2023-09-19T10:06:41;100617.66;;;20.09;60.90
28921;BME280;16035;53.594;9.952;2023-09-19T10:11:15;100616.06;;;19.99;58.70
28921;BME280;16035;53.594;9.952;2023-09-19T10:13:16;100616.06;;;19.99;59.51
28921;BME280;16035;53.594;9.952;2023-09-19T10:15:18;100604.41;;;19.93;59.92
28921;BME280;16035;53.594;9.952;2023-09-19T10:17:22;100613.81;;;19.92;59.29
28921;BME280;16035;53.594;9.952;2023-09-19T10:20:15;100614.28;;;19.86;59.31
28921;BME280;16035;53.594;9.952;2023-09-19T10:21:50;100618.34;;;19.97;59.56
28921;BME280;16035;53.594;9.952;2023-09-19T10:23:53;100629.22;;;20.02;58.03
28921;BME280;16035;53.594;9.952;2023-09-19T10:25:57;100617.38;;;20.02;58.26
28921;BME280;16035;53.594;9.952;2023-09-19T10:28:02;100614.44;;;19.98;58.09
28921;BME280;16035;53.594;9.952;2023-09-19T10:30:11;100613.19;;;19.87;58.11
28921;BME280;16035;53.594;9.952;2023-09-19T10:32:14;100602.63;;;19.72;57.91
28921;BME280;16035;53.594;9.952;2023-09-19T10:34:20;100610.72;;;19.59;57.85
28921;BME280;16035;53.594;9.952;2023-09-19T10:36:26;100609.09;;;19.41;57.47
28921;BME280;16035;53.594;9.952;2023-09-19T10:38:27;100610.88;;;19.37;58.28
28921;BME280;16035;53.594;9.952;2023-09-19T10:40:29;100608.44;;;19.35;57.33
28921;BME280;16035;53.594;9.952;2023-09-19T10:42:33;100612.81;;;19.36;57.77
28921;BME280;16035;53.594;9.952;2023-09-19T10:44:38;100613.50;;;19.33;57.39
28921;BME280;16035;53.594;9.952;2023-09-19T10:46:43;100615.09;;;19.34;57.61
28921;BME280;16035;53.594;9.952;2023-09-19T10:48:45;100598.06;;;19.41;58.16
28921;BME280;16035;53.594;9.952;2023-09-19T10:50:52;100606.69;;;19.48;57.76
28921;BME280;16035;53.594;9.952;2023-09-19T10:52:55;100612.19;;;19.48;57.45
28921;BME280;16035;53.594;9.952;2023-09-19T10:54:58;100610.88;;;19.54;57.43
28921;BME280;16035;53.594;9.952;2023-09-19T10:57:01;100617.03;;;19.60;56.87
28921;BME280;16035;53.594;9.952;2023-09-19T10:59:13;100623.69;;;19.59;56.33
28921;BME280;16035;53.594;9.952;2023-09-19T11:01:14;100630.00;;;19.59;56.35
28921;BME280;16035;53.594;9.952;2023-09-19T11:03:16;100614.78;;;19.53;56.48
28921;BME280;16035;53.594;9.952;2023-09-19T11:05:19;100621.91;;;19.45;55.94
28921;BME280;16035;53.594;9.952;2023-09-19T11:07:19;100626.44;;;19.50;56.06